Time;durP1;ratioP1;P1;durP2;ratioP2;P2;SDS_P1;SDS_P2;PMS_P1;PMS_P2;Temp;Humidity;BMP_temperature;BMP_pressure;BME280_temperature;BME280_humidity;BME280_pressure;Samples;Min_cycle;Max_cycle;Signal;HPM_P1;HPM_P2
2023/01/02 00:00:07;;;;;;;10.50;2.40;;;7.60;99.90;;;;;;21074831;28;20521;-77
2023/01/02 00:10:13;;;;;;;7.53;3.67;;;7.30;99.90;;;;;;21134075;28;20122;-77
2023/01/02 00:20:14;;;;;;;9.73;4.47;;;6.90;99.90;;;;;;21247180;28;20493;-77
2023/01/02 00:30:15;;;;;;;6.95;2.60;;;6.60;99.90;;;;;;21246151;28;20043;-77
2023/01/02 00:40:17;;;;;;;6.47;2.87;;;6.90;99.90;;;;;;21244923;27;20039;-77
2023/01/02 00:50:19;;;;;;;3.85;2.50;;;7.40;99.90;;;;;;21245331;28;20409;-78
2023/01/02 01:00:21;;;;;;;8.23;3.45;;;7.40;99.90;;;;;;21241796;27;20078;-78
2023/01/02 01:10:25;;;;;;;11.70;2.90;;;7.20;99.90;;;;;;21247913;27;20370;-77
2023/01/02 01:20:25;;;;;;;9.65;3.10;;;7.00;99.90;;;;;;21265815;27;21048;-78
2023/01/02 01:30:26;;;;;;;15.27;2.73;;;7.20;99.90;;;;;;21261700;27;20104;-78
2023/01/02 01:40:27;;;;;;;;;;;7.30;99.90;;;;;;21261586;27;20812;-78
2023/01/02 01:50:31;;;;;;;7.13;3.60;;;6.90;99.90;;;;;;21261559;27;19907;-78
2023/01/02 02:00:35;;;;;;;6.18;2.97;;;7.00;99.90;;;;;;21241632;27;20035;-78
2023/01/02 02:10:37;;;;;;;4.22;2.35;;;6.80;99.90;;;;;;21258626;27;20080;-78
2023/01/02 02:21:04;;;;;;;4.05;2.08;;;6.90;99.90;;;;;;21257096;27;20039;-78
2023/01/02 02:31:19;;;;;;;7.85;3.17;;;7.00;99.90;;;;;;21256985;27;20037;-78
2023/01/02 02:41:32;;;;;;;6.18;3.25;;;6.50;99.90;;;;;;21258917;27;20125;-78
2023/01/02 02:51:47;;;;;;;13.82;3.58;;;6.20;99.90;;;;;;21257961;27;20123;-78
2023/01/02 03:01:48;;;;;;;7.43;3.55;;;6.20;99.90;;;;;;21255408;27;20039;-77
2023/01/02 03:12:15;;;;;;;9.67;3.83;;;6.10;99.90;;;;;;21236435;27;20035;-77
2023/01/02 03:22:20;;;;;;;8.43;3.30;;;6.00;99.90;;;;;;21268503;27;20295;-78
2023/01/02 03:32:27;;;;;;;5.38;3.30;;;5.90;99.90;;;;;;21304607;27;20078;-77
2023/01/02 03:42:39;;;;;;;6.72;3.13;;;6.00;99.90;;;;;;21319783;27;20180;-78
2023/01/02 03:52:41;;;;;;;6.55;3.15;;;6.20;99.90;;;;;;21230176;27;20039;-78
2023/01/02 04:03:09;;;;;;;8.30;2.80;;;6.10;99.90;;;;;;21250656;27;20077;-77
2023/01/02 04:13:22;;;;;;;13.65;4.10;;;6.40;99.90;;;;;;21251056;27;20067;-78
2023/01/02 04:23:47;;;;;;;8.25;3.55;;;6.40;99.90;;;;;;21249098;28;20046;-77
2023/01/02 04:33:53;;;;;;;7.07;3.38;;;6.30;99.90;;;;;;21235094;27;20039;-79
2023/01/02 04:44:00;;;;;;;14.50;4.53;;;6.60;99.90;;;;;;21261582;27;20039;-78
2023/01/02 04:54:01;;;;;;;11.02;3.65;;;6.40;99.90;;;;;;21259277;27;20405;-77
2023/01/02 05:04:02;;;;;;;8.77;3.40;;;6.30;99.90;;;;;;21241291;27;20039;-77
2023/01/02 05:14:04;;;;;;;9.85;3.35;;;6.10;99.90;;;;;;21238803;27;20314;-77
2023/01/02 05:24:05;;;;;;;5.03;2.53;;;6.10;99.90;;;;;;21232263;27;20035;-77
2023/01/02 05:34:06;;;;;;;17.65;2.97;;;6.30;99.90;;;;;;21255561;27;20280;-78
2023/01/02 05:44:07;;;;;;;;;;;6.40;99.90;;;;;;21222769;27;20031;-77
2023/01/02 05:54:08;;;;;;;11.38;3.78;;;6.60;99.90;;;;;;21256184;27;19911;-78
2023/01/02 06:04:10;;;;;;;5.18;2.90;;;6.40;99.90;;;;;;21255054;27;20054;-78
2023/01/02 06:14:12;;;;;;;10.10;4.47;;;6.20;99.90;;;;;;21258053;27;20035;-78
2023/01/02 06:24:12;;;;;;;;;;;5.80;99.90;;;;;;21254035;27;20096;-76
2023/01/02 06:34:13;;;;;;;11.23;3.90;;;6.00;99.90;;;;;;21250711;27;20266;-77
2023/01/02 06:44:14;;;;;;;;;;;6.20;99.90;;;;;;21250773;27;20053;-77
2023/01/02 06:54:17;;;;;;;13.93;4.47;;;6.30;99.90;;;;;;21249955;27;20288;-77
2023/01/02 07:04:18;;;;;;;9.13;3.85;;;6.20;99.90;;;;;;21248527;27;20086;-77
2023/01/02 07:14:23;;;;;;;8.00;3.13;;;6.10;99.90;;;;;;21229789;27;20047;-77
2023/01/02 07:24:23;;;;;;;11.45;4.00;;;6.10;99.90;;;;;;21226986;27;20439;-77
2023/01/02 07:34:24;;;;;;;9.23;4.20;;;5.90;99.90;;;;;;21227658;27;20046;-77
2023/01/02 07:44:25;;;;;;;;;;;5.60;99.90;;;;;;21225484;27;20102;-77
2023/01/02 07:54:26;;;;;;;12.38;4.88;;;5.30;99.90;;;;;;21210923;27;20373;-80
2023/01/02 08:04:27;;;;;;;;;;;6.00;99.90;;;;;;21254999;27;20038;-80
2023/01/02 08:14:27;;;;;;;13.03;6.50;;;5.70;99.90;;;;;;21252211;27;19911;-79
2023/01/02 08:24:28;;;;;;;;;;;5.40;99.90;;;;;;21252359;27;20050;-80
2023/01/02 08:34:29;;;;;;;12.40;5.50;;;5.50;99.90;;;;;;21253712;28;20446;-79
2023/01/02 08:44:29;;;;;;;9.83;5.20;;;5.80;99.90;;;;;;21233867;28;20802;-79
2023/01/02 08:54:30;;;;;;;11.97;6.47;;;6.20;99.90;;;;;;21233339;28;20295;-78
2023/01/02 09:04:31;;;;;;;10.02;5.07;;;6.20;99.90;;;;;;21251366;28;20755;-78
2023/01/02 09:14:32;;;;;;;;;;;6.40;99.90;;;;;;21258206;27;20413;-79
2023/01/02 09:24:34;;;;;;;12.63;5.53;;;6.60;99.90;;;;;;21271231;27;19911;-79
2023/01/02 09:34:35;;;;;;;10.27;4.75;;;7.00;99.90;;;;;;21272576;27;20273;-79
2023/01/02 09:44:44;;;;;;;18.07;6.20;;;7.10;99.90;;;;;;21271697;27;20095;-79
2023/01/02 09:54:45;;;;;;;13.90;6.70;;;7.10;99.90;;;;;;21270751;27;20039;-80
2023/01/02 10:05:22;;;;;;;9.07;5.32;;;7.20;99.90;;;;;;21231663;27;20557;-80
2023/01/02 10:15:29;;;;;;;12.05;5.00;;;7.30;99.90;;;;;;21263888;27;20062;-78
2023/01/02 10:25:41;;;;;;;20.88;8.35;;;8.00;99.90;;;;;;21259953;27;20506;-79
2023/01/02 10:35:44;;;;;;;20.80;7.88;;;8.70;99.90;;;;;;21239082;27;20043;-78
2023/01/02 10:45:45;;;;;;;7.40;3.95;;;9.60;99.90;;;;;;21262189;27;20505;-78
2023/01/02 10:55:49;;;;;;;7.53;3.83;;;10.00;99.90;;;;;;21264110;27;20042;-79
2023/01/02 11:05:52;;;;;;;7.53;3.78;;;11.70;99.90;;;;;;21262224;27;20046;-78
2023/01/02 11:16:01;;;;;;;6.60;4.03;;;12.90;99.90;;;;;;21236595;27;20061;-78
2023/01/02 11:26:03;;;;;;;9.05;3.83;;;13.80;99.90;;;;;;21256403;27;20080;-79
2023/01/02 11:36:26;;;;;;;5.10;3.28;;;13.60;99.90;;;;;;21241685;27;20046;-79
2023/01/02 11:46:36;;;;;;;11.55;4.25;;;14.80;99.90;;;;;;20979081;28;20060;-78
2023/01/02 11:56:41;;;;;;;12.70;4.05;;;15.20;99.90;;;;;;20977836;28;20590;-78
2023/01/02 12:07:21;;;;;;;6.72;3.70;;;15.20;99.90;;;;;;20961622;28;20055;-78
2023/01/02 12:17:57;;;;;;;11.40;4.28;;;15.40;99.90;;;;;;21063647;28;20657;-78
2023/01/02 12:28:24;;;;;;;8.95;3.97;;;15.90;99.90;;;;;;21200538;28;20050;-79
2023/01/02 12:38:59;;;;;;;5.70;3.33;;;15.20;99.90;;;;;;20892573;28;20044;-78
2023/01/02 12:49:30;;;;;;;9.18;3.65;;;15.10;99.90;;;;;;20892205;28;20041;-79
2023/01/02 12:59:46;;;;;;;9.82;3.95;;;16.20;99.90;;;;;;20904493;28;20065;-77
2023/01/02 13:09:49;;;;;;;7.57;3.65;;;16.50;99.90;;;;;;21036489;27;20074;-79
2023/01/02 13:19:55;;;;;;;13.38;6.05;;;15.80;99.90;;;;;;21268100;27;20132;-78
2023/01/02 13:30:00;;;;;;;8.85;5.72;;;15.50;99.90;;;;;;21255412;27;20042;-78
2023/01/02 13:40:03;;;;;;;12.15;3.95;;;15.10;99.90;;;;;;21229259;27;20065;-79
2023/01/02 13:50:11;;;;;;;;;;;15.50;99.90;;;;;;21225738;27;20124;-78
2023/01/02 14:00:15;;;;;;;11.23;4.47;;;14.80;99.90;;;;;;21263233;27;19918;-78
2023/01/02 14:10:24;;;;;;;9.68;5.65;;;14.20;99.90;;;;;;21263481;27;20039;-78
2023/01/02 14:20:28;;;;;;;11.18;3.90;;;13.20;99.90;;;;;;21247635;27;20505;-78
2023/01/02 14:30:35;;;;;;;9.48;4.35;;;12.80;99.90;;;;;;21261902;27;20039;-78
2023/01/02 14:40:45;;;;;;;10.15;4.00;;;12.50;99.90;;;;;;21242188;27;20123;-78
2023/01/02 14:50:48;;;;;;;9.85;3.38;;;12.30;99.90;;;;;;21257790;27;20042;-77
2023/01/02 15:00:50;;;;;;;13.27;3.60;;;12.30;99.90;;;;;;21237911;27;20513;-79
2023/01/02 15:21:27;;;;;;;14.23;2.92;;;12.90;99.90;;;;;;21260583;27;20044;-79
2023/01/02 15:31:28;;;;;;;8.55;2.67;;;13.10;99.90;;;;;;21255065;27;20039;-78
2023/01/02 15:41:31;;;;;;;14.38;3.78;;;12.90;99.90;;;;;;21250926;27;20508;-77
2023/01/02 15:51:32;;;;;;;9.63;2.97;;;12.60;99.90;;;;;;21254009;27;20031;-77
2023/01/02 16:01:42;;;;;;;7.30;2.20;;;12.30;99.90;;;;;;21258351;27;20038;-78
2023/01/02 16:11:47;;;;;;;9.07;2.25;;;12.00;99.90;;;;;;21335140;27;20080;-77
2023/01/02 16:21:52;;;;;;;13.38;2.35;;;11.80;99.90;;;;;;21300365;27;20043;-77
2023/01/02 16:31:56;;;;;;;14.13;5.63;;;11.40;99.90;;;;;;21260799;27;20038;-76
2023/01/02 16:42:33;;;;;;;6.88;2.25;;;11.10;99.90;;;;;;21261458;27;20042;-76
2023/01/02 16:52:20;;;;;;;7.05;3.03;;;10.90;99.90;;;;;;21240218;27;20035;-76
2023/01/02 17:02:22;;;;;;;11.48;4.03;;;10.60;99.90;;;;;;21263907;27;20092;-75
2023/01/02 17:12:23;;;;;;;10.80;3.47;;;10.60;99.90;;;;;;21240025;27;20086;-76
2023/01/02 17:22:26;;;;;;;13.37;6.27;;;10.50;99.90;;;;;;21267074;27;20485;-78
2023/01/02 17:32:28;;;;;;;9.45;3.25;;;10.40;99.90;;;;;;21209641;27;20043;-76
2023/01/02 17:42:30;;;;;;;13.15;3.60;;;10.20;99.90;;;;;;21261607;27;20049;-77
2023/01/02 17:52:31;;;;;;;9.65;3.50;;;10.10;99.90;;;;;;21245457;27;20031;-78
2023/01/02 18:02:32;;;;;;;10.97;3.37;;;10.00;99.90;;;;;;21267509;27;20080;-79
2023/01/02 18:12:37;;;;;;;9.13;4.57;;;9.90;99.90;;;;;;21266977;27;20043;-78
2023/01/02 18:22:38;;;;;;;14.75;4.05;;;9.90;99.90;;;;;;21262881;27;20051;-77
2023/01/02 18:32:41;;;;;;;16.30;3.88;;;9.80;99.90;;;;;;21242081;27;20035;-78
2023/01/02 18:42:50;;;;;;;8.93;4.43;;;9.80;99.90;;;;;;21268463;27;20043;-79
2023/01/02 18:52:51;;;;;;;14.10;5.53;;;9.80;99.90;;;;;;21265732;27;20039;-78
2023/01/02 19:03:24;;;;;;;15.80;5.60;;;9.80;99.90;;;;;;21261568;27;20035;-79
2023/01/02 19:13:33;;;;;;;15.40;6.85;;;9.60;99.90;;;;;;21276864;27;20523;-78
2023/01/02 19:24:02;;;;;;;14.38;5.47;;;9.60;99.90;;;;;;21268182;27;20031;-78
2023/01/02 19:34:24;;;;;;;19.52;5.85;;;9.60;99.90;;;;;;21256493;27;20069;-78
2023/01/02 19:44:24;;;;;;;11.87;6.10;;;9.50;99.90;;;;;;21275832;27;20067;-77
2023/01/02 19:54:25;;;;;;;19.70;6.47;;;9.50;99.90;;;;;;21256784;27;20490;-78
2023/01/02 20:04:26;;;;;;;17.83;8.70;;;9.50;99.90;;;;;;21260330;27;20562;-78
2023/01/02 20:14:27;;;;;;;15.95;7.75;;;9.40;99.90;;;;;;21277428;27;20096;-77
2023/01/02 20:24:28;;;;;;;11.07;5.50;;;9.40;99.90;;;;;;21254018;27;20047;-79
2023/01/02 20:34:31;;;;;;;8.48;4.07;;;9.40;99.90;;;;;;21258222;28;20076;-77
2023/01/02 20:44:32;;;;;;;6.80;3.20;;;9.20;99.90;;;;;;21256123;28;20043;-78
2023/01/02 20:54:33;;;;;;;9.98;5.07;;;9.10;99.90;;;;;;21256210;28;20509;-77
2023/01/02 21:04:34;;;;;;;;;;;9.10;99.90;;;;;;21254661;28;20067;-77
2023/01/02 21:14:35;;;;;;;7.30;4.20;;;9.00;99.90;;;;;;21240421;27;20373;-78
2023/01/02 21:24:37;;;;;;;7.20;3.50;;;8.90;99.90;;;;;;21275034;27;20035;-78
2023/01/02 21:34:38;;;;;;;6.03;3.10;;;8.80;99.90;;;;;;21231879;27;20489;-78
2023/01/02 21:44:40;;;;;;;;;;;8.60;99.90;;;;;;21267512;27;20032;-78
2023/01/02 21:54:42;;;;;;;13.60;4.30;;;8.60;99.90;;;;;;21263954;27;19989;-78
2023/01/02 22:04:44;;;;;;;12.10;4.50;;;8.50;99.90;;;;;;21245806;27;20035;-77
2023/01/02 22:14:45;;;;;;;12.80;5.30;;;8.40;99.90;;;;;;21254567;27;20326;-78
2023/01/02 22:24:47;;;;;;;11.93;5.77;;;8.40;99.90;;;;;;21262742;27;20043;-78
2023/01/02 22:34:49;;;;;;;8.43;4.57;;;8.30;99.90;;;;;;21264446;27;20068;-78
2023/01/02 22:44:51;;;;;;;9.73;2.55;;;8.20;99.90;;;;;;21264901;27;20504;-77
2023/01/02 22:54:52;;;;;;;7.32;2.90;;;8.20;99.90;;;;;;21234399;27;20039;-77
2023/01/02 23:04:53;;;;;;;6.93;3.20;;;8.20;99.90;;;;;;21254899;27;20035;-78
2023/01/02 23:14:53;;;;;;;8.40;3.40;;;8.10;99.90;;;;;;21253410;27;20039;-78
2023/01/02 23:24:54;;;;;;;7.00;3.53;;;8.00;99.90;;;;;;21233592;27;20031;-77
2023/01/02 23:34:56;;;;;;;7.72;3.85;;;8.00;99.90;;;;;;21252809;27;20054;-78
2023/01/02 23:44:57;;;;;;;11.37;4.23;;;7.90;99.90;;;;;;21252967;27;20035;-77
2023/01/02 23:54:57;;;;;;;8.37;4.23;;;7.90;99.90;;;;;;21255496;27;20050;-77
